Terminal Aerodrome Forecast
Issued by NWS

Home | Current Version | Previous Version | Text Only | Print | Product List | Glossary On
Versions: 1 2 3 4 5 6 7 8 9 10 11 12 13 14 15
466
FTUS42 KTBW 231120
TAFLAL
TAF
KLAL 231120Z 2312/2412 05007KT 5SM BR BKN060
     FM231500 07011G16KT P6SM VCTS SCT025CB BKN200
     FM231800 07013G19KT P6SM VCSH SCT025 BKN050
     FM240200 07012G17KT P6SM FEW030 SCT250
     FM240800 06008KT P6SM FEW030 SCT250=

USA.gov is the U.S. government's official web portal to all federal, state and local government web resources and services.